createdAt,value
2022-09-14T00:01:27.624Z,100934.13
2022-09-14T00:04:04.330Z,100939.28
2022-09-14T00:06:32.562Z,100934.94
2022-09-14T00:09:01.710Z,100923.59
2022-09-14T00:11:31.698Z,100924.50
2022-09-14T00:14:01.016Z,100920.16
2022-09-14T00:16:32.256Z,100911.38
2022-09-14T00:19:18.073Z,100905.25
2022-09-14T00:21:45.503Z,100906.06
2022-09-14T00:24:13.223Z,100907.97
2022-09-14T00:26:40.726Z,100904.50
2022-09-14T00:29:08.307Z,100891.50
2022-09-14T00:31:39.930Z,100901.88
2022-09-14T00:34:12.061Z,100897.47
2022-09-14T00:36:42.418Z,100894.81
2022-09-14T00:39:10.618Z,100900.06
2022-09-14T00:41:42.787Z,100883.63
2022-09-14T00:44:12.948Z,100883.78
2022-09-14T00:46:43.558Z,100879.41
2022-09-14T00:49:19.505Z,100877.59
2022-09-14T00:51:55.602Z,100884.50
2022-09-14T00:54:23.266Z,100870.59
2022-09-14T00:56:51.270Z,100874.91
2022-09-14T00:59:25.035Z,100877.53
2022-09-14T01:01:52.785Z,100859.13
2022-09-14T01:04:20.325Z,100864.25
2022-09-14T01:07:00.683Z,100864.44
2022-09-14T01:10:05.511Z,100853.81
2022-09-14T01:12:51.453Z,100850.41
2022-09-14T01:15:46.146Z,100848.66
2022-09-14T01:18:29.030Z,100836.53
2022-09-14T01:21:03.461Z,100840.91
2022-09-14T01:23:57.892Z,100847.81
2022-09-14T01:26:34.834Z,100846.94
2022-09-14T01:29:07.241Z,100844.47
2022-09-14T01:31:44.057Z,100845.28
2022-09-14T01:34:17.917Z,100835.03
2022-09-14T01:36:51.846Z,100838.41
2022-09-14T01:39:22.709Z,100829.72
2022-09-14T01:41:52.446Z,100837.00
2022-09-14T01:44:27.318Z,100821.28
2022-09-14T01:46:57.974Z,100829.91
2022-09-14T01:49:32.291Z,100838.75
2022-09-14T01:52:05.514Z,100831.75
2022-09-14T01:54:43.801Z,100830.03
2022-09-14T01:57:28.808Z,100819.50
2022-09-14T02:00:02.527Z,100827.34
2022-09-14T02:02:35.619Z,100815.22
2022-09-14T02:05:11.622Z,100815.97
2022-09-14T02:07:39.658Z,100813.31
2022-09-14T02:10:11.698Z,100814.06
2022-09-14T02:12:40.381Z,100817.59
2022-09-14T02:15:10.772Z,100806.31
2022-09-14T02:17:38.973Z,100808.00
2022-09-14T02:20:09.159Z,100808.81
2022-09-14T02:22:36.878Z,100800.56
2022-09-14T02:25:04.556Z,100802.13
2022-09-14T02:27:32.091Z,100795.16
2022-09-14T02:29:59.796Z,100796.81
2022-09-14T02:32:39.106Z,100791.47
2022-09-14T02:35:09.324Z,100788.94
2022-09-14T02:37:51.051Z,100791.66
2022-09-14T02:40:27.641Z,100779.41
2022-09-14T02:43:13.478Z,100770.69
2022-09-14T02:46:17.542Z,100772.28
2022-09-14T02:49:03.044Z,100769.66
2022-09-14T02:51:41.154Z,100776.53
2022-09-14T02:54:30.346Z,100772.41
2022-09-14T02:57:01.907Z,100765.59
2022-09-14T02:59:29.883Z,100773.41
2022-09-14T03:02:00.028Z,100762.94
2022-09-14T03:04:28.021Z,100772.41
2022-09-14T03:06:55.453Z,100768.13
2022-09-14T03:09:22.908Z,100762.91
2022-09-14T03:11:50.366Z,100753.72
2022-09-14T03:14:17.812Z,100763.91
2022-09-14T03:16:45.267Z,100756.16
2022-09-14T03:19:13.215Z,100758.66
2022-09-14T03:21:40.798Z,100762.06
2022-09-14T03:24:08.543Z,100761.19
2022-09-14T03:26:38.211Z,100751.84
2022-09-14T03:29:07.324Z,100755.38
2022-09-14T03:31:35.564Z,100750.34
2022-09-14T03:34:03.701Z,100749.41
2022-09-14T03:36:32.650Z,100738.22
2022-09-14T03:39:01.717Z,100742.78
2022-09-14T03:41:29.630Z,100738.22
2022-09-14T03:43:57.062Z,100722.75
2022-09-14T03:46:25.979Z,100731.34
2022-09-14T03:48:55.291Z,100729.53
2022-09-14T03:51:23.198Z,100733.13
2022-09-14T03:53:50.736Z,100721.09
2022-09-14T03:56:21.353Z,100721.94
2022-09-14T03:58:50.107Z,100715.94
2022-09-14T04:01:21.542Z,100726.38
2022-09-14T04:03:50.133Z,100711.53
2022-09-14T04:06:19.683Z,100712.25
2022-09-14T04:08:48.250Z,100713.13
2022-09-14T04:11:19.479Z,100714.22
2022-09-14T04:13:48.312Z,100713.50
2022-09-14T04:16:17.802Z,100721.47
2022-09-14T04:18:46.051Z,100721.66
2022-09-14T04:21:19.472Z,100719.94
2022-09-14T04:24:12.788Z,100731.13
2022-09-14T04:26:35.127Z,100722.38
2022-09-14T04:29:02.653Z,100727.72
2022-09-14T04:31:30.379Z,100709.47
2022-09-14T04:33:58.029Z,100712.91
2022-09-14T04:36:31.032Z,100711.94
2022-09-14T04:39:01.066Z,100724.88
2022-09-14T04:41:30.338Z,100714.31
2022-09-14T04:43:58.477Z,100712.59
2022-09-14T04:46:28.945Z,100707.34
2022-09-14T04:48:56.780Z,100699.59
2022-09-14T04:51:27.244Z,100702.34
2022-09-14T04:53:56.371Z,100698.75
2022-09-14T04:56:25.401Z,100704.63
2022-09-14T04:58:58.639Z,100701.97
2022-09-14T05:01:29.268Z,100691.72
2022-09-14T05:03:57.347Z,100703.63
2022-09-14T05:06:27.324Z,100697.78
2022-09-14T05:08:56.080Z,100697.53
2022-09-14T05:11:26.488Z,100705.47
2022-09-14T05:13:54.135Z,100703.69
2022-09-14T05:16:31.998Z,100704.47
2022-09-14T05:19:02.369Z,100712.25
2022-09-14T05:21:31.846Z,100707.09
2022-09-14T05:24:02.194Z,100708.94
2022-09-14T05:26:31.432Z,100705.16
2022-09-14T05:29:00.973Z,100705.97
2022-09-14T05:31:30.322Z,100701.63
2022-09-14T05:33:58.582Z,100701.63
2022-09-14T05:36:26.681Z,100706.69
2022-09-14T05:38:54.166Z,100691.03
2022-09-14T05:41:21.978Z,100692.72
2022-09-14T05:43:49.621Z,100694.50
2022-09-14T05:46:20.169Z,100691.09
2022-09-14T05:48:51.266Z,100698.75
2022-09-14T05:51:21.178Z,100699.41
2022-09-14T05:53:50.515Z,100697.47
2022-09-14T05:56:19.205Z,100693.94
2022-09-14T05:58:47.827Z,100699.09
2022-09-14T06:01:16.923Z,100697.41
2022-09-14T06:03:45.486Z,100693.88
2022-09-14T06:06:15.764Z,100700.94
2022-09-14T06:08:44.395Z,100702.56
2022-09-14T06:11:15.700Z,100709.50
2022-09-14T06:13:44.029Z,100715.66
2022-09-14T06:16:14.566Z,100711.22
2022-09-14T06:18:44.038Z,100705.81
2022-09-14T06:21:15.138Z,100710.03
2022-09-14T06:23:43.300Z,100719.50
2022-09-14T06:26:11.117Z,100714.38
2022-09-14T06:28:39.021Z,100707.09
2022-09-14T06:31:09.867Z,100711.41
2022-09-14T06:33:37.727Z,100709.50
2022-09-14T06:36:12.535Z,100704.38
2022-09-14T06:38:41.143Z,100707.88
2022-09-14T06:41:12.236Z,100703.22
2022-09-14T06:43:41.793Z,100703.22
2022-09-14T06:46:16.648Z,100696.19
2022-09-14T06:48:50.893Z,100691.53
2022-09-14T06:51:25.555Z,100698.25
2022-09-14T06:53:53.945Z,100693.75
2022-09-14T06:56:21.753Z,100692.34
2022-09-14T06:58:49.927Z,100697.56
2022-09-14T07:01:19.819Z,100698.25
2022-09-14T07:03:48.254Z,100708.66
2022-09-14T07:06:19.195Z,100694.59
2022-09-14T07:08:46.672Z,100701.22
2022-09-14T07:11:17.155Z,100689.78
2022-09-14T07:13:46.373Z,100694.94
2022-09-14T07:16:15.000Z,100686.72
2022-09-14T07:18:43.145Z,100683.69
2022-09-14T07:21:13.568Z,100693.19
2022-09-14T07:23:43.682Z,100682.06
2022-09-14T07:26:12.699Z,100693.97
2022-09-14T07:28:41.348Z,100702.22
2022-09-14T07:31:23.158Z,100694.19
2022-09-14T07:33:57.573Z,100694.81
2022-09-14T07:36:26.461Z,100695.50
2022-09-14T07:38:55.230Z,100695.25
2022-09-14T07:41:25.454Z,100691.41
2022-09-14T07:43:54.715Z,100694.50
2022-09-14T07:46:23.042Z,100686.53
2022-09-14T07:48:56.559Z,100689.16
2022-09-14T07:51:25.004Z,100693.16
2022-09-14T07:53:53.065Z,100688.56
2022-09-14T07:56:21.781Z,100694.13
2022-09-14T07:58:54.481Z,100697.44
2022-09-14T08:01:23.154Z,100694.63
2022-09-14T08:03:50.818Z,100694.03
2022-09-14T08:06:22.393Z,100676.66
2022-09-14T08:08:51.776Z,100691.78
2022-09-14T08:11:20.902Z,100686.34
2022-09-14T08:13:51.837Z,100692.09
2022-09-14T08:16:20.468Z,100686.56
2022-09-14T08:18:49.039Z,100685.47
2022-09-14T08:21:18.541Z,100686.63
2022-09-14T08:23:46.492Z,100681.09
2022-09-14T08:26:17.155Z,100671.97
2022-09-14T08:28:45.178Z,100674.22
2022-09-14T08:31:15.438Z,100676.56
2022-09-14T08:33:45.653Z,100673.13
2022-09-14T08:36:15.596Z,100677.03
2022-09-14T08:38:43.162Z,100674.31
2022-09-14T08:41:30.410Z,100660.09
2022-09-14T08:44:24.344Z,100660.78
2022-09-14T08:47:01.803Z,100647.53
2022-09-14T08:49:44.329Z,100654.59
2022-09-14T08:52:23.086Z,100649.84
2022-09-14T08:54:55.006Z,100645.59
2022-09-14T08:57:33.958Z,100647.75
2022-09-14T09:00:10.411Z,100655.69
2022-09-14T09:02:47.076Z,100654.31
2022-09-14T09:05:14.478Z,100656.00
2022-09-14T09:08:00.807Z,100656.88
2022-09-14T09:10:30.162Z,100659.66
2022-09-14T09:13:02.696Z,100659.13
2022-09-14T09:15:44.254Z,100661.59
2022-09-14T09:18:30.026Z,100659.53
2022-09-14T09:21:06.099Z,100660.06
2022-09-14T09:23:35.114Z,100660.56
2022-09-14T09:26:18.209Z,100668.97
2022-09-14T09:28:49.490Z,100665.34
2022-09-14T09:31:20.446Z,100665.69
2022-09-14T09:33:50.780Z,100662.94
2022-09-14T09:36:18.702Z,100648.44
2022-09-14T09:38:46.349Z,100657.47
2022-09-14T09:41:21.915Z,100658.84
2022-09-14T09:44:01.923Z,100646.28
2022-09-14T09:46:35.971Z,100647.91
2022-09-14T09:49:05.924Z,100648.72
2022-09-14T09:51:35.724Z,100657.16
2022-09-14T09:54:31.246Z,100653.34
2022-09-14T09:57:07.952Z,100650.41
2022-09-14T09:59:41.812Z,100646.16
2022-09-14T10:02:32.314Z,100644.94
2022-09-14T10:05:12.028Z,100648.44
2022-09-14T10:07:50.313Z,100650.16
2022-09-14T10:10:20.852Z,100653.94
2022-09-14T10:12:50.979Z,100650.81
2022-09-14T10:15:33.352Z,100647.34
2022-09-14T10:18:09.171Z,100646.38
2022-09-14T10:20:39.286Z,100648.34
2022-09-14T10:23:39.807Z,100650.16
2022-09-14T10:26:13.310Z,100651.94
2022-09-14T10:28:42.210Z,100638.94
2022-09-14T10:31:12.704Z,100632.44
2022-09-14T10:33:40.324Z,100636.16
2022-09-14T10:36:33.906Z,100640.91
2022-09-14T10:39:16.167Z,100638.06
2022-09-14T10:41:48.107Z,100646.06
2022-09-14T10:44:44.528Z,100631.22
2022-09-14T10:47:36.869Z,100626.97
2022-09-14T10:50:32.481Z,100602.28
2022-09-14T10:53:09.012Z,100633.38
2022-09-14T10:55:48.270Z,100628.53
2022-09-14T10:58:31.197Z,100638.28
2022-09-14T11:01:16.327Z,100624.81
2022-09-14T11:03:55.832Z,100628.91
2022-09-14T11:06:26.022Z,100626.91
2022-09-14T11:09:12.623Z,100637.91
2022-09-14T11:12:09.397Z,100631.28
2022-09-14T11:14:45.853Z,100633.97
2022-09-14T11:17:35.157Z,100642.91
2022-09-14T11:20:26.561Z,100633.78
2022-09-14T11:23:25.236Z,100635.72
2022-09-14T11:25:57.748Z,100639.19
2022-09-14T11:28:42.230Z,100627.72
2022-09-14T11:31:24.309Z,100641.41
2022-09-14T11:33:57.174Z,100632.34
2022-09-14T11:36:32.498Z,100633.09
2022-09-14T11:39:12.808Z,100636.78
2022-09-14T11:42:02.493Z,100636.53
2022-09-14T11:44:42.041Z,100631.88
2022-09-14T11:47:18.109Z,100633.91
2022-09-14T11:50:03.459Z,100625.59
2022-09-14T11:52:33.231Z,100620.16
2022-09-14T11:55:03.115Z,100614.66
2022-09-14T11:57:33.218Z,100617.41
2022-09-14T12:00:04.168Z,100616.13
2022-09-14T12:03:01.507Z,100617.22
2022-09-14T12:05:32.285Z,100630.06
2022-09-14T12:08:06.609Z,100625.06
2022-09-14T12:11:24.674Z,100618.84
2022-09-14T12:14:27.431Z,100613.09
2022-09-14T12:17:37.812Z,100608.63
2022-09-14T12:20:28.400Z,100608.88
2022-09-14T12:23:26.805Z,100611.78
2022-09-14T12:26:12.112Z,100602.41
2022-09-14T12:28:47.839Z,100604.44
2022-09-14T12:31:39.683Z,100605.38
2022-09-14T12:34:31.802Z,100598.09
2022-09-14T12:37:29.302Z,100592.94
2022-09-14T12:40:24.090Z,100593.28
2022-09-14T12:42:51.734Z,100587.69
2022-09-14T12:46:00.817Z,100587.34
2022-09-14T12:48:46.693Z,100584.16
2022-09-14T12:51:29.404Z,100573.78
2022-09-14T12:54:00.203Z,100562.34
2022-09-14T12:56:43.425Z,100560.97
2022-09-14T12:59:19.582Z,100572.25
2022-09-14T13:02:03.395Z,100562.84
2022-09-14T13:04:37.340Z,100564.25
2022-09-14T13:07:18.686Z,100556.19
2022-09-14T13:09:53.925Z,100558.63
2022-09-14T13:12:31.142Z,100550.56
2022-09-14T13:15:08.885Z,100562.09
2022-09-14T13:17:36.416Z,100561.22
2022-09-14T13:20:06.379Z,100557.44
2022-09-14T13:22:34.525Z,100553.91
2022-09-14T13:25:02.364Z,100552.59
2022-09-14T13:27:34.798Z,100552.06
2022-09-14T13:30:09.771Z,100554.56
2022-09-14T13:32:43.651Z,100545.16
2022-09-14T13:35:28.697Z,100546.88
2022-09-14T13:37:58.618Z,100554.66
2022-09-14T13:40:30.208Z,100555.16
2022-09-14T13:42:59.712Z,100556.19
2022-09-14T13:45:28.384Z,100549.94
2022-09-14T13:47:56.283Z,100551.00
2022-09-14T13:50:25.750Z,100562.44
2022-09-14T13:53:03.605Z,100549.81
2022-09-14T13:55:34.788Z,100552.16
2022-09-14T13:58:26.433Z,100549.66
2022-09-14T14:01:02.168Z,100550.31
2022-09-14T14:03:39.896Z,100551.44
2022-09-14T14:06:22.738Z,100554.56
2022-09-14T14:09:10.996Z,100538.78
2022-09-14T14:11:39.607Z,100537.78
2022-09-14T14:14:11.572Z,100540.34
2022-09-14T14:16:39.008Z,100533.16
2022-09-14T14:19:08.032Z,100535.78
2022-09-14T14:21:35.521Z,100533.38
2022-09-14T14:24:27.860Z,100521.81
2022-09-14T14:26:57.206Z,100518.47
2022-09-14T14:29:26.294Z,100506.94
2022-09-14T14:31:56.226Z,100513.69
2022-09-14T14:34:27.170Z,100511.81
2022-09-14T14:36:55.207Z,100513.59
2022-09-14T14:39:25.047Z,100507.63
2022-09-14T14:41:53.701Z,100508.63
2022-09-14T14:44:28.156Z,100499.91
2022-09-14T14:46:56.616Z,100508.63
2022-09-14T14:49:24.316Z,100503.94
2022-09-14T14:51:52.213Z,100493.09
2022-09-14T14:54:19.646Z,100505.50
2022-09-14T14:56:48.596Z,100496.47
2022-09-14T14:59:25.279Z,100489.28
2022-09-14T15:01:55.035Z,100500.22
2022-09-14T15:04:22.850Z,100497.41
2022-09-14T15:06:51.181Z,100497.41
2022-09-14T15:09:22.233Z,100483.13
2022-09-14T15:11:50.782Z,100481.75
2022-09-14T15:14:24.916Z,100482.19
2022-09-14T15:16:57.937Z,100474.00
2022-09-14T15:19:25.711Z,100474.84
2022-09-14T15:21:55.291Z,100481.28
2022-09-14T15:24:26.191Z,100468.47
2022-09-14T15:26:54.350Z,100481.81
2022-09-14T15:29:21.830Z,100479.50
2022-09-14T15:31:49.746Z,100476.78
2022-09-14T15:34:17.250Z,100463.44
2022-09-14T15:36:54.981Z,100484.47
2022-09-14T15:39:25.266Z,100470.56
2022-09-14T15:41:53.460Z,100469.97
2022-09-14T15:44:21.308Z,100472.53
2022-09-14T15:46:49.352Z,100473.00
2022-09-14T15:49:20.061Z,100478.91
2022-09-14T15:51:50.918Z,100474.59
2022-09-14T15:54:19.453Z,100481.53
2022-09-14T15:56:52.212Z,100476.41
2022-09-14T15:59:20.661Z,100484.72
2022-09-14T16:01:48.945Z,100485.34
2022-09-14T16:04:17.490Z,100485.94
2022-09-14T16:06:45.270Z,100493.72
2022-09-14T16:09:14.155Z,100496.25
2022-09-14T16:11:41.949Z,100497.75
2022-09-14T16:14:11.775Z,100495.19
2022-09-14T16:16:39.975Z,100497.75
2022-09-14T16:19:13.392Z,100494.16
2022-09-14T16:21:42.701Z,100510.00
2022-09-14T16:24:14.221Z,100505.34
2022-09-14T16:26:42.169Z,100507.75
2022-09-14T16:29:12.642Z,100519.31
2022-09-14T16:31:42.657Z,100512.63
2022-09-14T16:34:14.549Z,100516.13
2022-09-14T16:36:43.285Z,100510.44
2022-09-14T16:39:17.316Z,100515.06
2022-09-14T16:41:45.383Z,100517.50
2022-09-14T16:44:25.045Z,100522.22
2022-09-14T16:46:53.979Z,100521.22
2022-09-14T16:49:27.036Z,100517.22
2022-09-14T16:51:55.677Z,100519.88
2022-09-14T16:54:25.478Z,100520.03
2022-09-14T16:56:56.026Z,100513.25
2022-09-14T16:59:23.746Z,100513.84
2022-09-14T17:01:54.688Z,100522.72
2022-09-14T17:04:22.958Z,100530.44
2022-09-14T17:06:52.019Z,100526.38
2022-09-14T17:09:23.357Z,100523.50
2022-09-14T17:11:51.446Z,100527.19
2022-09-14T17:14:22.948Z,100529.31
2022-09-14T17:16:50.954Z,100534.59
2022-09-14T17:19:18.868Z,100532.88
2022-09-14T17:21:47.578Z,100535.28
2022-09-14T17:24:15.959Z,100548.38
2022-09-14T17:26:44.186Z,100497.81
2022-09-14T17:29:12.601Z,100546.22
2022-09-14T17:31:43.058Z,100550.88
2022-09-14T17:34:12.724Z,100550.16
2022-09-14T17:36:40.350Z,100548.72
2022-09-14T17:39:12.064Z,100546.84
2022-09-14T17:41:40.424Z,100555.69
2022-09-14T17:44:09.057Z,100545.41
2022-09-14T17:46:44.437Z,100540.66
2022-09-14T17:49:16.109Z,100559.53
2022-09-14T17:51:45.163Z,100558.03
2022-09-14T17:54:13.428Z,100551.66
2022-09-14T17:56:40.937Z,100559.53
2022-09-14T17:59:13.710Z,100563.81
2022-09-14T18:01:41.587Z,100562.25
2022-09-14T18:04:12.409Z,100566.97
2022-09-14T18:06:42.554Z,100573.97
2022-09-14T18:09:13.293Z,100572.22
2022-09-14T18:11:40.923Z,100572.22
2022-09-14T18:14:12.668Z,100579.34
2022-09-14T18:16:41.019Z,100579.47
2022-09-14T18:19:08.677Z,100583.03
2022-09-14T18:21:36.494Z,100580.34
2022-09-14T18:24:04.310Z,100577.88
2022-09-14T18:26:31.926Z,100589.34
2022-09-14T18:28:59.615Z,100591.28
2022-09-14T18:31:27.899Z,100595.03
2022-09-14T18:34:00.736Z,100584.16
2022-09-14T18:36:30.277Z,100592.88
2022-09-14T18:38:59.083Z,100590.63
2022-09-14T18:41:28.852Z,100584.75
2022-09-14T18:43:56.405Z,100586.94
2022-09-14T18:46:27.864Z,100604.56
2022-09-14T18:48:57.873Z,100602.28
2022-09-14T18:51:26.241Z,100599.84
2022-09-14T18:54:03.204Z,100598.47
2022-09-14T18:56:33.083Z,100602.09
2022-09-14T18:59:01.457Z,100599.81
2022-09-14T19:01:29.080Z,100603.47
2022-09-14T19:03:57.619Z,100608.09
2022-09-14T19:06:25.322Z,100598.75
2022-09-14T19:08:53.448Z,100612.91
2022-09-14T19:11:23.212Z,100613.03
2022-09-14T19:13:56.881Z,100617.53
2022-09-14T19:16:24.764Z,100615.81
2022-09-14T19:18:52.351Z,100615.81
2022-09-14T19:21:24.176Z,100619.34
2022-09-14T19:24:18.183Z,100619.34
2022-09-14T19:26:49.525Z,100617.75
2022-09-14T19:29:21.054Z,100632.47
2022-09-14T19:31:51.638Z,100625.66
2022-09-14T19:34:20.853Z,100625.63
2022-09-14T19:36:48.943Z,100626.63
2022-09-14T19:39:16.638Z,100626.78
2022-09-14T19:41:44.109Z,100632.09
2022-09-14T19:44:12.112Z,100629.63
2022-09-14T19:46:40.326Z,100629.97
2022-09-14T19:49:14.477Z,100632.72
2022-09-14T19:51:42.028Z,100632.03
2022-09-14T19:54:10.256Z,100641.81
2022-09-14T19:56:38.218Z,100635.00
2022-09-14T19:59:07.811Z,100629.28
2022-09-14T20:01:38.211Z,100637.25
2022-09-14T20:04:07.410Z,100641.88
2022-09-14T20:06:44.773Z,100636.03
2022-09-14T20:09:18.742Z,100645.84
2022-09-14T20:11:48.490Z,100644.31
2022-09-14T20:14:19.320Z,100646.31
2022-09-14T20:16:52.197Z,100647.38
2022-09-14T20:19:21.926Z,100652.78
2022-09-14T20:21:51.402Z,100651.19
2022-09-14T20:24:25.716Z,100654.84
2022-09-14T20:26:56.610Z,100637.50
2022-09-14T20:29:25.689Z,100642.84
2022-09-14T20:31:53.478Z,100636.22
2022-09-14T20:34:22.184Z,100651.88
2022-09-14T20:36:50.848Z,100649.34
2022-09-14T20:39:19.776Z,100654.53
2022-09-14T20:41:47.598Z,100661.47
2022-09-14T20:44:15.835Z,100656.16
2022-09-14T20:46:46.990Z,100633.75
2022-09-14T20:49:17.334Z,100658.66
2022-09-14T20:51:46.087Z,100657.63
2022-09-14T20:54:16.618Z,100660.09
2022-09-14T20:56:44.678Z,100644.47
2022-09-14T20:59:15.809Z,100668.53
2022-09-14T21:01:45.646Z,100664.00
2022-09-14T21:04:17.102Z,100663.00
2022-09-14T21:06:51.885Z,100661.19
2022-09-14T21:09:20.270Z,100661.19
2022-09-14T21:11:48.459Z,100668.25
2022-09-14T21:14:17.897Z,100670.09
2022-09-14T21:16:48.351Z,100679.81
2022-09-14T21:19:25.300Z,100666.25
2022-09-14T21:21:52.947Z,100674.22
2022-09-14T21:24:22.954Z,100669.13
2022-09-14T21:26:51.002Z,100669.38
2022-09-14T21:29:24.231Z,100684.38
2022-09-14T21:31:52.358Z,100677.59
2022-09-14T21:34:20.162Z,100680.38
2022-09-14T21:36:51.786Z,100646.00
2022-09-14T21:39:24.579Z,100667.69
2022-09-14T21:41:58.314Z,100672.97
2022-09-14T21:44:33.826Z,100681.81
2022-09-14T21:47:02.905Z,100679.38
2022-09-14T21:49:30.349Z,100676.91
2022-09-14T21:51:58.019Z,100677.88
2022-09-14T21:54:25.512Z,100677.88
2022-09-14T21:56:53.418Z,100686.66
2022-09-14T21:59:22.699Z,100686.66
2022-09-14T22:01:50.553Z,100688.41
2022-09-14T22:04:21.789Z,100694.44
2022-09-14T22:06:51.347Z,100698.69
2022-09-14T22:09:21.453Z,100691.72
2022-09-14T22:11:49.122Z,100684.44
2022-09-14T22:14:19.421Z,100686.00
2022-09-14T22:16:48.774Z,100691.84
2022-09-14T22:19:16.417Z,100697.81
2022-09-14T22:21:44.879Z,100688.91
2022-09-14T22:24:16.151Z,100678.34
2022-09-14T22:26:44.571Z,100678.97
2022-09-14T22:29:12.877Z,100671.84
2022-09-14T22:31:42.642Z,100682.09
2022-09-14T22:34:10.612Z,100682.78
2022-09-14T22:36:38.676Z,100679.19
2022-09-14T22:39:07.074Z,100680.81
2022-09-14T22:41:35.239Z,100683.28
2022-09-14T22:44:03.837Z,100691.03
2022-09-14T22:46:31.981Z,100692.66
2022-09-14T22:48:59.481Z,100681.28
2022-09-14T22:51:29.386Z,100688.34
2022-09-14T22:53:57.800Z,100692.94
2022-09-14T22:56:32.192Z,100694.56
2022-09-14T22:59:01.621Z,100692.84
2022-09-14T23:01:32.645Z,100689.34
2022-09-14T23:04:04.445Z,100685.94
2022-09-14T23:06:38.043Z,100693.88
2022-09-14T23:09:06.496Z,100693.00
2022-09-14T23:11:34.013Z,100695.66
2022-09-14T23:14:01.506Z,100704.25
2022-09-14T23:16:31.454Z,100706.91
2022-09-14T23:19:02.956Z,100701.66
2022-09-14T23:21:32.327Z,100708.44
2022-09-14T23:24:02.559Z,100715.31
2022-09-14T23:26:31.206Z,100713.50
2022-09-14T23:29:08.582Z,100715.06
2022-09-14T23:31:36.282Z,100719.38
2022-09-14T23:34:06.536Z,100709.72
2022-09-14T23:36:34.803Z,100709.00
2022-09-14T23:39:03.156Z,100704.66
2022-09-14T23:41:30.714Z,100714.25
2022-09-14T23:43:58.341Z,100724.75
2022-09-14T23:46:26.024Z,100710.94
2022-09-14T23:48:53.748Z,100721.31
2022-09-14T23:51:21.341Z,100720.50
2022-09-14T23:53:48.818Z,100718.69
2022-09-14T23:56:16.296Z,100709.19
2022-09-14T23:58:44.245Z,100716.88
